LLUVIA / DATOS DE TEMPERATURA

Febrero 2005

Fecha / Hora Temperatura (*F) Dew Point (*F) Humedad Relativa (%)
02/01/05 00:04 52.49 26.88 36.8
02/01/05 00:34 52.49 26.88 36.8
02/01/05 01:04 51.79 26.26 36.8
02/01/05 01:34 52.49 26.56 36.3
02/01/05 02:04 52.49 26.88 36.8
02/01/05 02:34 50.38 28.72 42.9
02/01/05 03:04 51.79 26.58 37.3
02/01/05 03:34 51.79 26.58 37.3
02/01/05 04:04 52.49 25.2 34.3
02/01/05 04:34 53.19 25.46 33.8
02/01/05 05:04 51.79 26.26 36.8
02/01/05 05:34 52.49 24.2 32.9
02/01/05 06:04 53.19 23.7 31.4
02/01/05 06:34 53.19 24.08 31.9
02/01/05 07:04 52.49 23.46 31.9
02/01/05 07:34 49.67 26.56 40.3
02/01/05 08:04 46.1 28.58 50.1
02/01/05 08:34 45.38 28.86 52.1
02/01/05 09:04 51.08 25.96 37.3
02/01/05 09:34 52.49 25.88 35.3
02/01/05 10:04 54.58 26.32 33.3
02/01/05 10:34 55.97 25.74 30.9
02/01/05 11:04 58.73 25.86 28.1
02/01/05 11:34 60.11 25.8 26.7
02/01/05 12:04 62.17 26.26 25.3
02/01/05 12:34 62.17 24.9 23.9
02/01/05 13:04 63.54 24.18 22.1
02/01/05 13:34 64.22 24.76 22.1
02/01/05 14:04 64.22 24.32 21.7
02/01/05 14:34 64.91 23.88 20.8
02/01/05 15:04 65.59 21.42 18.3
02/01/05 15:34 66.28 18.54 15.8
02/01/05 16:04 66.96 20.24 16.6
02/01/05 16:34 67.65 17.8 14.6
02/01/05 17:04 66.96 22 17.9
02/01/05 17:34 64.22 22.84 20.4
02/01/05 18:04 62.17 24.5 23.5
02/01/05 18:34 59.42 25.22 26.7
02/01/05 19:04 56.66 27.86 32.9
02/01/05 19:34 55.28 33.14 42.9
02/01/05 20:04 54.58 29.4 37.8
02/01/05 20:34 55.28 26.64 32.9
02/01/05 21:04 55.28 25.52 31.4
02/01/05 21:34 54.58 26.68 33.8
02/01/05 22:04 54.58 25.3 31.9
02/01/05 22:34 54.58 25.3 31.9
02/01/05 23:04 53.89 25.72 33.3
02/01/05 23:34 53.89 24.68 31.9
02/02/05 00:04 53.19 24.44 32.4
02/02/05 00:34 53.19 25.1 33.3
02/02/05 01:04 53.19 25.46 33.8
02/02/05 01:34 52.49 25.54 34.8
02/02/05 02:04 53.19 26.16 34.8
02/02/05 02:34 53.19 26.84 35.8
02/02/05 03:04 53.19 27.84 37.3
02/02/05 03:34 53.19 26.84 35.8
02/02/05 04:04 53.89 26.42 34.3
02/02/05 04:34 53.89 26.78 34.8
02/02/05 05:04 53.89 28.12 36.8
02/02/05 05:34 53.19 28.16 37.8
02/02/05 06:04 53.19 28.16 37.8
02/02/05 06:34 53.89 28.78 37.8
02/02/05 07:04 53.19 27.84 37.3
02/02/05 07:34 53.19 28.16 37.8
02/02/05 08:04 53.19 28.16 37.8
02/02/05 08:34 53.19 27.5 36.8
02/02/05 09:04 53.19 27.5 36.8
02/02/05 09:34 54.58 27.4 34.8
02/02/05 10:04 55.28 26.94 33.3
02/02/05 10:34 55.97 26.88 32.4
02/02/05 11:04 58.04 26.42 29.5
02/02/05 11:34 59.42 26.44 28.1
02/02/05 12:04 60.8 24.62 24.8
02/02/05 12:34 60.8 22.82 23
02/02/05 13:04 62.17 21.14 20.4
02/02/05 13:34 62.17 21.6 20.8
02/02/05 14:04 61.48 22.46 22.1
02/02/05 14:34 62.17 23.98 23
02/02/05 15:04 61.48 22.46 22.1
02/02/05 15:34 62.85 22.74 21.3
02/02/05 16:04 62.17 20.68 20
02/02/05 16:34 62.17 19.6 19.1
02/02/05 17:04 61.48 21.6 21.3
02/02/05 17:34 60.11 22.76 23.5
02/02/05 18:04 59.42 24.76 26.2
02/02/05 18:34 58.04 24.04 26.7
02/02/05 19:04 55.97 25.04 30
02/02/05 19:34 54.58 23.82 30
02/02/05 20:04 55.28 22.88 28.1
02/02/05 20:34 54.58 23.02 29
02/02/05 21:04 54.58 24.14 30.4
02/02/05 21:34 54.58 23.42 29.5
02/02/05 22:04 54.58 24.92 31.4
02/02/05 22:34 54.58 25.3 31.9
02/02/05 23:04 54.58 26.32 33.3
02/02/05 23:34 54.58 25.66 32.4
02/03/05 00:04 54.58 24.92 31.4
02/03/05 00:34 53.89 23.92 30.9
02/03/05 01:04 54.58 23.02 29
02/03/05 01:34 54.58 23.02 29
02/03/05 02:04 54.58 23.02 29
02/03/05 02:34 54.58 21.86 27.6
02/03/05 03:04 53.89 21.26 27.6
02/03/05 03:34 53.89 21.26 27.6
02/03/05 04:04 53.19 21.82 29
02/03/05 04:34 53.19 21.4 28.5
02/03/05 05:04 53.19 21.82 29
02/03/05 05:34 52.49 22.32 30.4
02/03/05 06:04 52.49 23.1 31.4
02/03/05 06:34 52.49 21.62 29.5
02/03/05 07:04 52.49 21.22 29
02/03/05 07:34 52.49 20.8 28.5
02/03/05 08:04 51.79 21.4 30
02/03/05 08:34 50.38 22.98 33.8
02/03/05 09:04 51.08 22.6 32.4
02/03/05 09:34 52.49 22.7 30.9
02/03/05 10:04 53.19 21.82 29
02/03/05 10:34 53.89 22.42 29
02/03/05 11:04 54.58 21.42 27.1
02/03/05 11:34 55.97 21 25.3
02/03/05 12:04 57.35 21.32 24.4
02/03/05 12:34 58.04 21.42 23.9
02/03/05 13:04 58.73 21.1 23
02/03/05 13:34 59.42 20.3 21.7
02/03/05 14:04 60.11 22.26 23
02/03/05 14:34 60.11 20.88 21.7
02/03/05 15:04 60.8 21.02 21.3
02/03/05 15:34 61.48 21.6 21.3
02/03/05 16:04 62.17 22.6 21.7
02/03/05 16:34 62.17 22.16 21.3
02/03/05 17:04 60.8 21.88 22.1
02/03/05 17:34 58.73 20.16 22.1
02/03/05 18:04 58.04 21.9 24.4
02/03/05 18:34 57.35 23.44 26.7
02/03/05 19:04 54.58 24.14 30.4
02/03/05 19:34 53.89 25.42 32.9
02/03/05 20:04 53.19 25.1 33.3
02/03/05 20:34 53.19 26.16 34.8
02/03/05 21:04 53.89 26.08 33.8
02/03/05 21:34 53.89 26.78 34.8
02/03/05 22:04 53.19 26.5 35.3
02/03/05 22:34 53.89 25.42 32.9
02/03/05 23:04 53.89 25.72 33.3
02/03/05 23:34 53.89 26.42 34.3
02/04/05 00:04 53.89 26.08 33.8
02/04/05 00:34 53.19 26.16 34.8
02/04/05 01:04 51.08 27.84 40.3
02/04/05 01:34 51.08 28.12 40.8
02/04/05 02:04 51.79 29.06 41.3
02/04/05 02:34 51.08 29 42.3
02/04/05 03:04 51.79 28.76 40.8
02/04/05 03:34 52.49 29.1 40.3
02/04/05 04:04 51.79 29.36 41.8
02/04/05 04:34 51.79 29.36 41.8
02/04/05 05:04 51.79 29.64 42.3
02/04/05 05:34 51.08 29.64 43.4
02/04/05 06:04 51.08 29.92 43.9
02/04/05 06:34 49.67 29.98 46.4
02/04/05 07:04 52.49 28.48 39.3
02/04/05 07:34 48.96 31.7 51.1
02/04/05 08:04 45.38 32.74 61
02/04/05 08:34 44.65 31.82 60.4
02/04/05 09:04 51.08 28.72 41.8
02/04/05 09:34 53.19 28.16 37.8
02/04/05 10:04 55.97 27.54 33.3
02/04/05 10:34 58.04 26.42 29.5
02/04/05 11:04 60.8 25.1 25.3
02/04/05 11:34 62.85 25.48 23.9
02/04/05 12:04 64.22 24.76 22.1
02/04/05 12:34 64.22 23.88 21.3
02/04/05 13:04 65.59 23.98 20.4
02/04/05 13:34 66.96 25.58 20.8
02/04/05 14:04 66.28 25.02 20.8
02/04/05 14:34 66.96 24.64 20
02/04/05 15:04 68.33 24.66 19.1
02/04/05 15:34 68.33 23.64 18.3
02/04/05 16:04 69.02 24.2 18.3
02/04/05 16:34 67.65 24.1 19.1
02/04/05 17:04 65.59 23.98 20.4
02/04/05 17:34 64.22 23.3 20.8
02/04/05 18:04 62.85 23.6 22.1
02/04/05 18:34 60.8 24.24 24.4
02/04/05 19:04 58.04 27.54 30.9
02/04/05 19:34 57.35 28.46 32.9
02/04/05 20:04 56.66 29.22 34.8
02/04/05 20:34 55.28 29.7 37.3
02/04/05 21:04 54.58 30.66 39.8
02/04/05 21:34 51.79 33.02 48.5
02/04/05 22:04 49.67 33.6 53.7
02/04/05 22:34 49.67 33.6 53.7
02/04/05 23:04 49.67 35.92 58.9
02/04/05 23:34 53.19 33.78 47.5
02/05/05 00:04 54.58 39.82 57.3
02/05/05 00:34 50.38 44.88 81.3
02/05/05 01:04 51.08 46.02 82.7
02/05/05 01:34 51.79 45.8 79.9
02/05/05 02:04 53.19 42.76 67.6
02/05/05 02:34 53.89 38.48 55.8
02/05/05 03:04 54.58 38.9 55.3
02/05/05 03:34 54.58 40.08 57.9
02/05/05 04:04 54.58 40.52 58.9
02/05/05 04:34 53.89 40.08 59.4
02/05/05 05:04 54.58 36.1 49.5
02/05/05 05:34 52.49 40.08 62.5
02/05/05 06:04 49.67 41.94 74.6
02/05/05 06:34 49.67 39.98 69.1
02/05/05 07:04 48.25 40.06 73.1
02/05/05 07:34 47.53 40.06 75.1
02/05/05 08:04 46.1 39.64 78
02/05/05 08:34 44.65 39.88 83.2
02/05/05 09:04 46.1 37.32 71.2
02/05/05 09:34 52.49 32.56 46.4
02/05/05 10:04 52.49 37.4 56.3
02/05/05 10:34 55.97 37.68 50.1
02/05/05 11:04 61.48 35.22 37.3
02/05/05 11:34 63.54 38.04 38.8
02/05/05 12:04 64.22 30.58 28.1
02/05/05 12:34 64.91 29.9 26.7
02/05/05 13:04 65.59 30.02 26.2
02/05/05 13:34 66.28 28.86 24.4
02/05/05 14:04 66.28 28.36 23.9
02/05/05 14:34 66.96 28.52 23.5
02/05/05 15:04 68.33 30.1 23.9
02/05/05 15:34 68.33 30.1 23.9
02/05/05 16:04 68.33 29.68 23.5
02/05/05 16:34 68.33 34.88 29
02/05/05 17:04 68.33 35.32 29.5
02/05/05 17:34 66.28 35.9 32.4
02/05/05 18:04 65.59 37.46 35.3
02/05/05 18:34 62.85 37.42 38.8
02/05/05 19:04 60.8 41.28 48.5
02/05/05 19:34 58.73 35.62 41.8
02/05/05 20:04 55.97 38.42 51.6
02/05/05 20:34 53.89 41.4 62.5
02/05/05 21:04 53.19 39.86 60.4
02/05/05 21:34 53.19 39.22 58.9
02/05/05 22:04 53.89 40.76 61
02/05/05 22:34 53.19 42.38 66.6
02/05/05 23:04 51.79 43.64 73.6
02/05/05 23:34 51.79 45.32 78.5
02/06/05 00:04 51.08 46.3 83.6
02/06/05 00:34 51.08 46.74 85
02/06/05 01:04 50.38 46.72 87.2
02/06/05 01:34 49.67 46.42 88.5
02/06/05 02:04 49.67 47.16 91
02/06/05 02:34 48.96 47.26 93.8
02/06/05 03:04 48.25 47.08 95.7
02/06/05 03:34 48.96 48.2 97.2
02/06/05 04:04 48.25 47.8 98.3
02/06/05 04:34 47.53 47.54 100
02/06/05 05:04 48.25 48.24 100.6
02/06/05 05:34 48.25 48.24 100.3
02/06/05 06:04 48.25 48.24 100.3
02/06/05 06:34 48.25 47.98 99
02/06/05 07:04 47.53 46.48 96.1
02/06/05 07:34 48.25 46.88 95
02/06/05 08:04 48.25 46.96 95.3
02/06/05 08:34 48.25 46.32 93
02/06/05 09:04 48.96 47.6 95
02/06/05 09:34 49.67 48.3 95
02/06/05 10:04 50.38 47.98 91.4
02/06/05 10:34 51.79 46.98 83.6
02/06/05 11:04 51.79 46.54 82.2
02/06/05 11:34 53.19 43.52 69.6
02/06/05 12:04 57.35 43.34 59.4
02/06/05 12:34 55.28 43.58 64.6
02/06/05 13:04 53.89 42.66 65.6
02/06/05 13:34 55.28 42.72 62.5
02/06/05 14:04 56.66 42.48 58.9
02/06/05 14:34 53.89 43.62 68.1
02/06/05 15:04 53.19 44.44 72.1
02/06/05 15:34 53.89 44.6 70.7
02/06/05 16:04 54.58 44.86 69.6
02/06/05 16:34 53.89 44.2 69.6
02/06/05 17:04 53.19 44.12 71.2
02/06/05 17:34 53.89 42.66 65.6
02/06/05 18:04 53.19 42.38 66.6
02/06/05 18:34 52.49 43.04 70.1
02/06/05 19:04 51.79 44.52 76.1
02/06/05 19:34 51.08 44.64 78.5
02/06/05 20:04 51.08 46.02 82.7
02/06/05 20:34 50.38 45.6 83.6
02/06/05 21:04 49.67 46.26 88
02/06/05 21:34 48.96 45.96 89.3
02/06/05 22:04 49.67 46.42 88.5
02/06/05 22:34 49.67 47.16 91
02/06/05 23:04 48.96 47.02 93
02/06/05 23:34 48.25 46.1 92.2
02/07/05 00:04 48.25 45.64 90.6
02/07/05 00:34 47.53 45.04 91
02/07/05 01:04 47.53 45.5 92.6
02/07/05 01:34 46.1 44.42 93.8
02/07/05 02:04 46.1 44.52 94.2
02/07/05 02:34 45.38 44.12 95.3
02/07/05 03:04 44.65 44.02 97.6
02/07/05 03:34 43.92 43.66 99
02/07/05 04:04 43.19 43.08 99.6
02/07/05 04:34 44.65 44.38 99
02/07/05 05:04 45.38 43.8 94.2
02/07/05 05:34 45.38 43.7 93.8
02/07/05 06:04 45.38 43.58 93.4
02/07/05 06:34 45.38 41.92 87.6
02/07/05 07:04 43.19 41.86 95
02/07/05 07:34 41.72 40.68 96.1
02/07/05 08:04 40.97 40.42 97.9
02/07/05 08:34 40.97 40.62 98.6
02/07/05 09:04 40.97 40.8 99.3
02/07/05 09:34 45.38 44.34 96.1
02/07/05 10:04 46.82 44.1 90.2
02/07/05 10:34 49.67 41.94 74.6
02/07/05 11:04 51.79 41.8 68.6
02/07/05 11:34 51.08 40.38 66.6
02/07/05 12:04 51.79 40.46 65.1
02/07/05 12:34 51.08 40.94 68.1
02/07/05 13:04 51.79 41.8 68.6
02/07/05 13:34 52.49 41.12 65.1
02/07/05 14:04 52.49 41.72 66.6
02/07/05 14:34 53.19 41.78 65.1
02/07/05 15:04 52.49 41.52 66.1
02/07/05 15:34 52.49 41.12 65.1
02/07/05 16:04 53.89 40.76 61
02/07/05 16:34 53.19 41.58 64.6
02/07/05 17:04 53.89 41.6 63
02/07/05 17:34 53.19 42.18 66.1
02/07/05 18:04 52.49 43.64 71.7
02/07/05 18:34 51.79 46.08 80.8
02/07/05 19:04 50.38 46.32 85.9
02/07/05 19:34 50.38 46.84 87.6
02/07/05 20:04 49.67 47.04 90.6
02/07/05 20:34 48.25 46.44 93.4
02/07/05 21:04 46.82 45.76 96.1
02/07/05 21:34 45.38 44.74 97.6
02/07/05 22:04 46.1 45.64 98.3
02/07/05 22:34 47.53 45.38 92.2
02/07/05 23:04 48.25 45.26 89.3
02/07/05 23:34 48.96 45.56 88
02/08/05 00:04 48.25 45.64 90.6
02/08/05 00:34 46.1 44.74 95
02/08/05 01:04 44.65 44.02 97.6
02/08/05 01:34 43.92 43.74 99.3
02/08/05 02:04 42.46 42.36 99.6
02/08/05 02:34 42.46 42.46 100.3
02/08/05 03:04 40.97 40.98 100.6
02/08/05 03:34 40.23 40.22 101.3
02/08/05 04:04 40.97 40.98 101.3
02/08/05 04:34 40.97 40.98 101.6
02/08/05 05:04 40.23 40.22 101.6
02/08/05 05:34 39.48 39.48 101.9
02/08/05 06:04 39.48 39.48 101.9
02/08/05 06:34 38.72 38.72 101.9
02/08/05 07:04 38.72 38.72 101.9
02/08/05 07:34 37.97 37.96 101.9
02/08/05 08:04 38.72 38.72 101.9
02/08/05 08:34 40.23 40.22 102.2
02/08/05 09:04 46.1 41.86 85
02/08/05 09:34 46.82 42.12 83.6
02/08/05 10:04 51.08 40.94 68.1
02/08/05 10:34 53.19 40.74 62.5
02/08/05 11:04 54.58 42.26 63
02/08/05 11:34 55.28 43.12 63.5
02/08/05 12:04 55.97 42.04 59.4
02/08/05 12:34 56.66 42.48 58.9
02/08/05 13:04 56.66 42.26 58.4
02/08/05 13:34 56.66 41.3 56.3
02/08/05 14:04 57.35 40.96 54.2
02/08/05 14:34 56.66 40.32 54.2
02/08/05 15:04 58.04 40.1 51.1
02/08/05 15:34 58.04 39.28 49.5
02/08/05 16:04 57.35 39.96 52.1
02/08/05 16:34 56.66 40.08 53.7
02/08/05 17:04 56.66 40.84 55.3
02/08/05 17:34 55.97 40.66 56.3
02/08/05 18:04 55.97 40.66 56.3
02/08/05 18:34 54.58 41.18 60.4
02/08/05 19:04 53.19 41.14 63.5
02/08/05 19:34 51.79 41.24 67.1
02/08/05 20:04 51.79 41.24 67.1
02/08/05 20:34 48.96 40.92 73.6
02/08/05 21:04 47.53 41.66 79.9
02/08/05 21:34 46.1 41.7 84.5
02/08/05 22:04 46.82 42.68 85.4
02/08/05 22:34 50.38 40.84 69.6
02/08/05 23:04 48.96 41.08 74.1
02/08/05 23:34 51.79 40.66 65.6
02/09/05 00:04 52.49 40.92 64.6
02/09/05 00:34 52.49 40.92 64.6
02/09/05 01:04 52.49 39.66 61.5
02/09/05 01:34 53.19 39.86 60.4
02/09/05 02:04 53.19 39.86 60.4
02/09/05 02:34 53.19 39.64 59.9
02/09/05 03:04 53.19 39.86 60.4
02/09/05 03:34 53.19 39.64 59.9
02/09/05 04:04 53.19 39.44 59.4
02/09/05 04:34 52.49 38.98 59.9
02/09/05 05:04 52.49 39.66 61.5
02/09/05 05:34 52.49 40.08 62.5
02/09/05 06:04 52.49 39.66 61.5
02/09/05 06:34 52.49 39.2 60.4
02/09/05 07:04 53.19 38.78 57.9
02/09/05 07:34 53.19 38.28 56.8
02/09/05 08:04 53.19 38.78 57.9
02/09/05 08:34 53.19 39 58.4
02/09/05 09:04 53.89 38.94 56.8
02/09/05 09:34 54.58 38.62 54.7
02/09/05 10:04 55.28 38.32 52.7
02/09/05 10:34 55.97 37.92 50.6
02/09/05 11:04 56.66 38.32 50.1
02/09/05 11:34 58.73 37.7 45.4
02/09/05 12:04 60.11 36.24 40.8
02/09/05 12:34 62.17 35.82 37.3
02/09/05 13:04 62.85 36.44 37.3
02/09/05 13:34 62.17 36.48 38.3
02/09/05 14:04 60.8 36.24 39.8
02/09/05 14:34 61.48 34.54 36.3
02/09/05 15:04 62.17 32.98 33.3
02/09/05 15:34 62.85 31.72 30.9
02/09/05 16:04 62.85 29.4 28.1
02/09/05 16:34 63.54 28.74 26.7
02/09/05 17:04 62.17 28.8 28.1
02/09/05 17:34 62.17 27.92 27.1
02/09/05 18:04 60.11 30.5 32.4
02/09/05 18:34 58.04 30.1 34.3
02/09/05 19:04 56.66 29.58 35.3
02/09/05 19:34 55.28 30.02 37.8
02/09/05 20:04 55.28 29.36 36.8
02/09/05 20:34 55.28 28.7 35.8
02/09/05 21:04 55.28 28.7 35.8
02/09/05 21:34 54.58 28.74 36.8
02/09/05 22:04 55.28 28.36 35.3
02/09/05 22:34 55.28 28.36 35.3
02/09/05 23:04 54.58 27.74 35.3
02/09/05 23:34 54.58 27.4 34.8
02/10/05 00:04 54.58 28.74 36.8
02/10/05 00:34 54.58 29.4 37.8
02/10/05 01:04 53.89 28.46 37.3
02/10/05 01:34 54.58 29.72 38.3
02/10/05 02:04 53.89 29.42 38.8
02/10/05 02:34 54.58 30.04 38.8
02/10/05 03:04 54.58 30.36 39.3
02/10/05 03:34 53.89 30.34 40.3
02/10/05 04:04 54.58 30.36 39.3
02/10/05 04:34 55.28 30.66 38.8
02/10/05 05:04 55.28 30.98 39.3
02/10/05 05:34 55.28 31.6 40.3
02/10/05 06:04 55.97 29.98 36.8
02/10/05 06:34 55.28 31.6 40.3
02/10/05 07:04 55.28 31.6 40.3
02/10/05 07:34 52.49 37.4 56.3
02/10/05 08:04 50.38 42.28 73.6
02/10/05 08:34 48.96 43.04 79.9
02/10/05 09:04 49.67 42.94 77.5
02/10/05 09:34 49.67 44.02 80.8
02/10/05 10:04 51.08 45.86 82.2
02/10/05 10:34 51.08 47.54 87.6
02/10/05 11:04 51.79 47.28 84.5
02/10/05 11:34 52.49 47.1 81.8
02/10/05 12:04 52.49 45.66 77.5
02/10/05 12:34 51.79 44.68 76.6
02/10/05 13:04 51.08 46.58 84.5
02/10/05 13:34 50.38 47.74 90.6
02/10/05 14:04 50.38 47.62 90.2
02/10/05 14:34 51.08 46.02 82.7
02/10/05 15:04 48.96 45.84 88.9
02/10/05 15:34 48.25 45.86 91.4
02/10/05 16:04 48.25 45.38 89.7
02/10/05 16:34 48.25 45.98 91.8
02/10/05 17:04 48.25 46.66 94.2
02/10/05 17:34 48.25 46.66 94.2
02/10/05 18:04 48.25 47.2 96.1
02/10/05 18:34 47.53 46.68 96.8
02/10/05 19:04 47.53 46.78 97.2
02/10/05 19:34 48.25 47.08 95.7
02/10/05 20:04 48.25 47.38 96.8
02/10/05 20:34 48.25 47.68 97.9
02/10/05 21:04 48.25 47.8 98.3
02/10/05 21:34 48.25 47.68 97.9
02/10/05 22:04 48.25 48.24 100.6
02/10/05 22:34 48.25 48.14 99.6
02/10/05 23:04 48.25 48.24 100.6
02/10/05 23:34 48.25 48.14 99.6
02/11/05 00:04 48.96 48.58 98.6
02/11/05 00:34 48.96 48.78 99.3
02/11/05 01:04 48.96 48.86 99.6
02/11/05 01:34 48.96 48.96 100.3
02/11/05 02:04 48.96 48.96 101
02/11/05 02:34 48.96 48.96 100.3
02/11/05 03:04 49.67 49.1 97.9
02/11/05 03:34 49.67 48.72 96.5
02/11/05 04:04 49.67 49.22 98.3
02/11/05 04:34 49.67 49.22 98.3
02/11/05 05:04 50.38 50 98.6
02/11/05 05:34 50.38 50 98.6
02/11/05 06:04 51.08 50.7 98.6
02/11/05 06:34 51.08 50.98 99.6
02/11/05 07:04 51.79 51.78 100
02/11/05 07:34 51.79 51.78 100.6
02/11/05 08:04 53.89 53.88 100.3
02/11/05 08:34 54.58 54.58 100.3
02/11/05 09:04 54.58 54.58 101.3
02/11/05 09:34 54.58 54.58 101.9
02/11/05 10:04 54.58 54.58 102.2
02/11/05 10:34 54.58 54.58 102.2
02/11/05 11:04 55.97 55.98 101.9
02/11/05 11:34 56.66 56.66 101.3
02/11/05 12:04 57.35 57.36 101
02/11/05 12:34 57.35 57.36 100.6
02/11/05 13:04 57.35 57.36 101.9
02/11/05 13:34 57.35 57.36 101.3
02/11/05 14:04 56.66 56.66 101.3
02/11/05 14:34 55.97 55.98 102.2
02/11/05 15:04 55.28 55.28 102.2
02/11/05 15:34 55.28 55.28 102.5
02/11/05 16:04 55.28 55.28 102.5
02/11/05 16:34 54.58 54.58 102.2
02/11/05 17:04 55.28 55.28 101.9
02/11/05 17:34 55.97 55.98 101
02/11/05 18:04 55.28 55.28 101.3
02/11/05 18:34 55.28 55.28 101.3
02/11/05 19:04 55.28 55.28 101.6
02/11/05 19:34 54.58 54.58 101.9
02/11/05 20:04 54.58 54.58 102.2
02/11/05 20:34 53.89 53.88 102.2
02/11/05 21:04 53.89 53.88 102.5
02/11/05 21:34 52.49 52.48 102.5
02/11/05 22:04 52.49 52.48 102.5
02/11/05 22:34 51.08 51.08 103.1
02/11/05 23:04 51.08 51.08 102.8
02/11/05 23:34 51.08 51.08 103.1
02/12/05 00:04 50.38 50.38 103.1
02/12/05 00:34 49.67 49.68 103.1
02/12/05 01:04 50.38 50.38 103.1
02/12/05 01:34 51.08 51.08 103.4
02/12/05 02:04 51.08 51.08 103.4
02/12/05 02:34 51.08 51.08 103.4
02/12/05 03:04 51.08 51.08 103.7
02/12/05 03:34 51.08 51.08 103.4
02/12/05 04:04 50.38 50.38 103.4
02/12/05 04:34 50.38 50.38 103.7
02/12/05 05:04 50.38 50.38 103.4
02/12/05 05:34 49.67 49.68 103.4
02/12/05 06:04 49.67 49.68 103.4
02/12/05 06:34 49.67 49.68 103.7
02/12/05 07:04 48.25 48.24 103.4
02/12/05 07:34 47.53 47.54 103.1
02/12/05 08:04 48.25 48.24 103.1
02/12/05 08:34 48.25 48.24 103.1
02/12/05 09:04 48.96 48.96 102.8
02/12/05 09:34 49.67 49.68 102.8
02/12/05 10:04 49.67 49.68 102.5
02/12/05 10:34 50.38 50.38 102.5
02/12/05 11:04 51.79 51.78 100.6
02/12/05 11:34 52.49 51.72 97.2
02/12/05 12:04 52.49 51.52 96.5
02/12/05 12:34 53.19 50.98 92.2
02/12/05 13:04 53.19 50.76 91.4
02/12/05 13:34 53.19 51.8 95
02/12/05 14:04 53.19 51.1 92.6
02/12/05 14:34 54.58 50.98 87.6
02/12/05 15:04 53.89 50.42 88
02/12/05 15:34 55.28 50.86 85
02/12/05 16:04 58.04 48.18 69.6
02/12/05 16:34 57.35 49.72 75.6
02/12/05 17:04 56.66 50.24 79
02/12/05 17:34 54.58 50.58 86.3
02/12/05 18:04 55.28 47.72 75.6
02/12/05 18:34 54.58 48.04 78.5
02/12/05 19:04 53.89 47.84 79.9
02/12/05 19:34 51.79 48.62 88.9
02/12/05 20:04 50.38 48.44 93
02/12/05 20:34 49.67 48.5 95.7
02/12/05 21:04 50.38 49.2 95.7
02/12/05 21:34 49.67 48.5 95.7
02/12/05 22:04 48.25 47.68 97.9
02/12/05 22:34 47.53 47.42 99.6
02/12/05 23:04 46.1 46.1 101.3
02/12/05 23:34 44.65 44.66 101.9
02/13/05 00:04 44.65 44.66 102.2
02/13/05 00:34 44.65 44.66 102.5
02/13/05 01:04 43.92 43.92 102.5
02/13/05 01:34 43.92 43.92 102.5
02/13/05 02:04 42.46 42.46 102.5
02/13/05 02:34 41.72 41.72 102.5
02/13/05 03:04 41.72 41.72 102.8
02/13/05 03:34 41.72 41.72 102.8
02/13/05 04:04 41.72 41.72 102.8
02/13/05 04:34 41.72 41.72 102.8
02/13/05 05:04 40.97 40.98 102.8
02/13/05 05:34 40.23 40.22 103.1
02/13/05 06:04 40.97 40.98 103.1
02/13/05 06:34 40.23 40.22 103.1
02/13/05 07:04 39.48 39.48 103.1
02/13/05 07:34 40.23 40.22 103.1
02/13/05 08:04 40.23 40.22 103.1
02/13/05 08:34 39.48 39.48 103.1
02/13/05 09:04 40.23 40.22 103.1
02/13/05 09:34 43.92 43.92 103.4
02/13/05 10:04 48.25 48.24 103.4
02/13/05 10:34 52.49 52.48 103.1
02/13/05 11:04 60.11 58.44 94.2
02/13/05 11:34 61.48 46.78 58.4
02/13/05 12:04 62.17 45.2 53.7
02/13/05 12:34 62.85 44.78 51.6
02/13/05 13:04 64.22 44.96 49.5
02/13/05 13:34 64.91 44.5 47.5
02/13/05 14:04 65.59 43.94 45.4
02/13/05 14:34 66.28 43.68 43.9
02/13/05 15:04 68.33 43.3 40.3
02/13/05 15:34 70.39 42.42 36.3
02/13/05 16:04 71.77 41.78 33.8
02/13/05 16:34 68.33 46.14 44.9
02/13/05 17:04 66.96 51.16 56.8
02/13/05 17:34 69.71 47.38 44.9
02/13/05 18:04 69.02 47.62 46.4
02/13/05 18:34 68.33 47.62 47.5
02/13/05 19:04 62.17 48.08 59.9
02/13/05 19:34 58.73 50.52 74.1
02/13/05 20:04 57.35 49.72 75.6
02/13/05 20:34 55.97 49.4 78.5
02/13/05 21:04 55.28 48.88 79
02/13/05 21:34 54.58 49.44 82.7
02/13/05 22:04 53.89 49.48 85
02/13/05 22:34 52.49 48.8 87.2
02/13/05 23:04 50.38 48.88 94.6
02/13/05 23:34 49.67 49.02 97.6
02/14/05 00:04 48.25 48.06 99.3
02/14/05 00:34 47.53 47.54 101.3
02/14/05 01:04 46.82 46.82 101.6
02/14/05 01:34 46.82 46.82 101.9
02/14/05 02:04 46.82 46.82 102.2
02/14/05 02:34 45.38 45.38 102.2
02/14/05 03:04 44.65 44.66 102.5
02/14/05 03:34 46.82 46.82 102.5
02/14/05 04:04 45.38 45.38 102.5
02/14/05 04:34 44.65 44.66 102.8
02/14/05 05:04 44.65 44.66 102.8
02/14/05 05:34 44.65 44.66 102.8
02/14/05 06:04 43.92 43.92 103.1
02/14/05 06:34 43.19 43.2 102.8
02/14/05 07:04 43.19 43.2 103.1
02/14/05 07:34 42.46 42.46 102.8
02/14/05 08:04 43.92 43.92 102.8
02/14/05 08:34 43.92 43.92 103.1
02/14/05 09:04 45.38 45.38 103.1
02/14/05 09:34 48.96 48.96 103.1
02/14/05 10:04 51.79 51.78 102.8
02/14/05 10:34 53.89 53.88 102.5
02/14/05 11:04 59.42 57.76 94.2
02/14/05 11:34 60.11 50.76 71.2
02/14/05 12:04 63.54 48.7 58.4
02/14/05 12:34 64.22 46.86 53.2
02/14/05 13:04 64.91 45.04 48.5
02/14/05 13:34 66.28 46.02 48
02/14/05 14:04 64.91 44.5 47.5
02/14/05 14:34 66.28 47.16 50.1
02/14/05 15:04 66.96 46.1 47
02/14/05 15:34 66.28 46.02 48
02/14/05 16:04 66.28 48.2 52.1
02/14/05 16:34 66.96 47.2 49
02/14/05 17:04 63.54 52.02 66.1
02/14/05 17:34 62.17 50.92 66.6
02/14/05 18:04 60.8 51.94 72.6
02/14/05 18:34 59.42 54.16 82.7
02/14/05 19:04 58.04 54.52 88
02/14/05 19:34 55.97 53.98 93
02/14/05 20:04 54.58 53.5 96.1
02/14/05 20:34 54.58 53.6 96.5
02/14/05 21:04 53.19 52.8 98.6
02/14/05 21:34 51.79 51.78 100.3
02/14/05 22:04 51.79 51.78 101.3
02/14/05 22:34 51.79 51.78 101.6
02/14/05 23:04 50.38 50.38 101.9
02/14/05 23:34 50.38 50.38 102.2
02/15/05 00:04 50.38 50.38 102.5
02/15/05 00:34 50.38 50.38 102.5
02/15/05 01:04 50.38 50.38 102.5
02/15/05 01:34 50.38 50.38 102.8
02/15/05 02:04 50.38 50.38 102.8
02/15/05 02:34 49.67 49.68 102.8
02/15/05 03:04 49.67 49.68 102.8
02/15/05 03:34 48.96 48.96 103.1
02/15/05 04:04 48.25 48.24 102.8
02/15/05 04:34 47.53 47.54 102.8
02/15/05 05:04 47.53 47.54 103.1
02/15/05 05:34 47.53 47.54 102.8
02/15/05 06:04 48.25 48.24 102.8
02/15/05 06:34 46.82 46.82 102.5
02/15/05 07:04 46.82 46.82 101.9
02/15/05 07:34 46.1 46.1 101.9
02/15/05 08:04 46.82 46.82 101.9
02/15/05 08:34 46.82 46.82 102.2
02/15/05 09:04 46.82 46.82 102.2
02/15/05 09:34 48.25 48.24 101.9
02/15/05 10:04 51.08 50.52 97.9
02/15/05 10:34 53.19 50.24 89.7
02/15/05 11:04 57.35 49.18 74.1
02/15/05 11:34 59.42 47.5 64.6
02/15/05 12:04 62.17 42.54 48.5
02/15/05 12:34 63.54 42.98 47
02/15/05 13:04 62.85 43.44 49
02/15/05 13:34 63.54 42.64 46.4
02/15/05 14:04 65.59 43.36 44.4
02/15/05 14:34 65.59 43.06 43.9
02/15/05 15:04 65.59 45.12 47.5
02/15/05 15:34 65.59 48.62 54.2
02/15/05 16:04 66.28 50.04 55.8
02/15/05 16:34 64.91 47.98 54.2
02/15/05 17:04 63.54 51.4 64.6
02/15/05 17:34 62.17 52.32 70.1
02/15/05 18:04 60.8 52.32 73.6
02/15/05 18:34 60.11 53.58 79
02/15/05 19:04 58.73 53.78 83.6
02/15/05 19:34 58.04 54.1 86.7
02/15/05 20:04 57.35 53.7 87.6
02/15/05 20:34 56.66 53.82 90.2
02/15/05 21:04 56.66 54.18 91.4
02/15/05 21:34 55.97 53.98 93
02/15/05 22:04 55.28 53.88 95
02/15/05 22:34 55.28 54.08 95.7
02/15/05 23:04 54.58 53.5 96.1
02/15/05 23:34 53.89 53.22 97.6
02/16/05 00:04 53.89 53.5 98.6
02/16/05 00:34 53.19 52.92 99
02/16/05 01:04 53.19 53.08 99.6
02/16/05 01:34 52.49 52.48 101.3
02/16/05 02:04 53.19 53.18 101.6
02/16/05 02:34 53.19 53.18 101.6
02/16/05 03:04 53.89 53.88 101
02/16/05 03:34 53.19 52.8 98.6
02/16/05 04:04 52.49 52.3 99.3
02/16/05 04:34 51.79 51.52 99
02/16/05 05:04 51.79 51.78 100.6
02/16/05 05:34 51.08 51.08 101.9
02/16/05 06:04 51.08 51.08 101.9
02/16/05 06:34 50.38 50.38 102.2
02/16/05 07:04 50.38 50.38 102.5
02/16/05 07:34 51.08 51.08 101.3
02/16/05 08:04 51.08 49.78 95.3
02/16/05 08:34 50.38 49.42 96.5
02/16/05 09:04 50.38 49.2 95.7
02/16/05 09:34 52.49 50.18 91.8
02/16/05 10:04 58.04 50.88 77
02/16/05 10:34 60.11 50.58 70.7
02/16/05 11:04 64.22 49.34 58.4
02/16/05 11:34 64.91 49.24 56.8
02/16/05 12:04 66.28 48.76 53.2
02/16/05 12:34 65.59 48.12 53.2
02/16/05 13:04 64.91 47.74 53.7
02/16/05 13:34 65.59 48.86 54.7
02/16/05 14:04 65.59 47.88 52.7
02/16/05 14:34 66.28 48.76 53.2
02/16/05 15:04 66.28 48.5 52.7
02/16/05 15:34 66.96 48.06 50.6
02/16/05 16:04 68.33 43.94 41.3
02/16/05 16:34 66.96 44.3 43.9
02/16/05 17:04 66.28 43.08 42.9
02/16/05 17:34 64.91 43.6 45.9
02/16/05 18:04 63.54 43.52 48
02/16/05 18:34 62.17 44.16 51.6
02/16/05 19:04 60.8 43.44 52.7
02/16/05 19:34 60.11 43.76 54.7
02/16/05 20:04 59.42 43.64 55.8
02/16/05 20:34 58.73 44.86 59.9
02/16/05 21:04 58.04 45.32 62.5
02/16/05 21:34 60.11 44.28 55.8
02/16/05 22:04 58.04 46.4 65.1
02/16/05 22:34 58.04 44.68 61
02/16/05 23:04 58.04 43.78 58.9
02/16/05 23:34 58.04 43.78 58.9
02/17/05 00:04 58.04 42.6 56.3
02/17/05 00:34 58.04 41.38 53.7
02/17/05 01:04 58.04 41.38 53.7
02/17/05 01:34 58.04 40.6 52.1
02/17/05 02:04 57.35 40.96 54.2
02/17/05 02:34 55.28 42.72 62.5
02/17/05 03:04 53.89 43.44 67.6
02/17/05 03:34 53.89 43.24 67.1
02/17/05 04:04 53.19 45.86 76.1
02/17/05 04:34 52.49 45.36 76.6
02/17/05 05:04 56.66 45.08 65.1
02/17/05 05:34 56.66 45.5 66.1
02/17/05 06:04 55.97 46.6 70.7
02/17/05 06:34 55.28 47.18 74.1
02/17/05 07:04 55.28 47.54 75.1
02/17/05 07:34 55.28 48.2 77
02/17/05 08:04 55.97 48.56 76.1
02/17/05 08:34 55.97 48.2 75.1
02/17/05 09:04 56.66 47.98 72.6
02/17/05 09:34 58.04 47.2 67.1
02/17/05 10:04 59.42 45.98 61
02/17/05 10:34 60.8 45.9 57.9
02/17/05 11:04 61.48 44.32 53.2
02/17/05 11:34 63.54 44.06 49
02/17/05 12:04 65.59 42.46 42.9
02/17/05 12:34 67.65 41.36 38.3
02/17/05 13:04 67.65 43 40.8
02/17/05 13:34 66.96 43.7 42.9
02/17/05 14:04 68.33 44.26 41.8
02/17/05 14:34 67.65 44.32 42.9
02/17/05 15:04 67.65 44.32 42.9
02/17/05 15:34 66.96 44.9 44.9
02/17/05 16:04 66.96 38.66 35.3
02/17/05 16:34 66.28 39.82 37.8
02/17/05 17:04 65.59 40.52 39.8
02/17/05 17:34 64.91 41.84 42.9
02/17/05 18:04 63.54 42.64 46.4
02/17/05 18:34 61.48 49 63.5
02/17/05 19:04 59.42 50.82 73.1
02/17/05 19:34 58.04 48.96 71.7
02/17/05 20:04 57.35 49.36 74.6
02/17/05 20:34 55.97 49.22 78
02/17/05 21:04 55.97 49.7 79.4
02/17/05 21:34 55.28 49.48 80.8
02/17/05 22:04 55.28 50.56 84.1
02/17/05 22:34 55.28 50.28 83.2
02/17/05 23:04 55.28 49.66 81.3
02/17/05 23:34 55.28 49.82 81.8
02/18/05 00:04 55.97 49.86 79.9
02/18/05 00:34 56.66 48.34 73.6
02/18/05 01:04 57.35 45.1 63.5
02/18/05 01:34 57.35 45.94 65.6
02/18/05 02:04 56.66 46.86 69.6
02/18/05 02:34 54.58 49.14 81.8
02/18/05 03:04 54.58 50.16 85
02/18/05 03:34 54.58 49.88 84.1
02/18/05 04:04 53.89 50.7 88.9
02/18/05 04:34 54.58 49.6 83.2
02/18/05 05:04 54.58 47.88 78
02/18/05 05:34 53.89 49.04 83.6
02/18/05 06:04 52.49 50.4 92.6
02/18/05 06:34 52.49 49.44 89.3
02/18/05 07:04 52.49 49.82 90.6
02/18/05 07:34 53.19 49.74 88
02/18/05 08:04 51.79 49.72 92.6
02/18/05 08:34 51.08 49.78 95.3
02/18/05 09:04 53.19 51.8 95
02/18/05 09:34 53.89 51.68 92.2
02/18/05 10:04 55.97 53 89.7
02/18/05 10:34 58.73 53.32 82.2
02/18/05 11:04 58.73 52.56 79.9
02/18/05 11:34 59.42 53.06 79.4
02/18/05 12:04 63.54 51.2 64.1
02/18/05 12:34 62.17 50.1 64.6
02/18/05 13:04 62.17 51.72 68.6
02/18/05 13:34 62.17 53.26 72.6
02/18/05 14:04 62.17 53.26 72.6
02/18/05 14:34 63.54 54.06 71.2
02/18/05 15:04 63.54 53.44 69.6
02/18/05 15:34 64.91 53.54 66.6
02/18/05 16:04 64.91 53.94 67.6
02/18/05 16:34 66.96 51.9 58.4
02/18/05 17:04 65.59 53.36 64.6
02/18/05 17:34 63.54 54.58 72.6
02/18/05 18:04 61.48 54.56 78
02/18/05 18:34 60.8 53.9 78
02/18/05 19:04 60.11 54.66 82.2
02/18/05 19:34 59.42 55.34 86.3
02/18/05 20:04 58.73 56.12 91
02/18/05 20:34 58.04 56.04 93
02/18/05 21:04 58.04 56.04 93
02/18/05 21:34 55.97 55.38 97.9
02/18/05 22:04 55.97 55.86 99.6
02/18/05 22:34 55.28 54.38 96.8
02/18/05 23:04 54.58 53.92 97.6
02/18/05 23:34 53.89 52.68 95.7
02/19/05 00:04 53.89 53.3 97.9
02/19/05 00:34 53.19 52.72 98.3
02/19/05 01:04 52.49 52.48 100
02/19/05 01:34 53.89 53.88 100.6
02/19/05 02:04 53.89 53.88 100.3
02/19/05 02:34 53.89 53.88 100.3
02/19/05 03:04 53.89 53.88 100.3
02/19/05 03:34 53.89 53.88 100.3
02/19/05 04:04 54.58 54.38 99.3
02/19/05 04:34 54.58 54.58 101
02/19/05 05:04 54.58 54.58 101.3
02/19/05 05:34 53.89 53.88 101.6
02/19/05 06:04 53.89 53.88 101.6
02/19/05 06:34 53.89 53.88 101.3
02/19/05 07:04 53.89 53.88 101.3
02/19/05 07:34 53.89 53.88 100.3
02/19/05 08:04 53.89 53.88 101
02/19/05 08:34 53.89 53.88 101.6
02/19/05 09:04 53.89 53.88 101.3
02/19/05 09:34 54.58 54.58 101.3
02/19/05 10:04 54.58 54.58 101
02/19/05 10:34 55.97 55.98 100.6
02/19/05 11:04 55.97 55.98 100.3
02/19/05 11:34 58.73 57.3 95
02/19/05 12:04 59.42 57.04 91.8
02/19/05 12:34 60.11 58.32 93.8
02/19/05 13:04 59.42 57.88 94.6
02/19/05 13:34 59.42 57.16 92.2
02/19/05 14:04 59.42 57.04 91.8
02/19/05 14:34 61.48 55.88 81.8
02/19/05 15:04 62.85 53.58 71.7
02/19/05 15:34 62.17 52.54 70.7
02/19/05 16:04 63.54 51.82 65.6
02/19/05 16:34 64.22 48.82 57.3
02/19/05 17:04 62.85 45.84 53.7
02/19/05 17:34 62.17 45.96 55.3
02/19/05 18:04 61.48 47 58.9
02/19/05 18:34 58.73 48.44 68.6
02/19/05 19:04 57.35 50.38 77.5
02/19/05 19:34 54.58 50.16 85
02/19/05 20:04 53.19 50.76 91.4
02/19/05 20:34 51.79 50.28 94.6
02/19/05 21:04 51.79 51.02 97.2
02/19/05 21:34 52.49 52.3 99.3
02/19/05 22:04 53.19 53.18 100.6
02/19/05 22:34 53.19 53.18 100.6
02/19/05 23:04 52.49 52.48 100.6
02/19/05 23:34 53.19 53.18 100
02/20/05 00:04 53.19 53.18 101.6
02/20/05 00:34 53.19 53.18 102.5
02/20/05 01:04 52.49 52.48 102.2
02/20/05 01:34 51.79 51.78 102.5
02/20/05 02:04 51.79 51.78 102.5
02/20/05 02:34 51.08 51.08 102.2
02/20/05 03:04 51.79 51.78 102.5
02/20/05 03:34 50.38 50.38 102.5
02/20/05 04:04 50.38 50.38 102.5
02/20/05 04:34 49.67 49.68 102.5
02/20/05 05:04 50.38 50.38 102.5
02/20/05 05:34 50.38 50.38 102.8
02/20/05 06:04 49.67 49.68 102.5
02/20/05 06:34 50.38 50.38 102.8
02/20/05 07:04 50.38 50.38 102.8
02/20/05 07:34 49.67 49.68 102.8
02/20/05 08:04 50.38 50.38 102.8
02/20/05 08:34 50.38 50.38 102.8
02/20/05 09:04 50.38 50.38 102.5
02/20/05 09:34 51.79 51.78 102.2
02/20/05 10:04 54.58 54.3 99
02/20/05 10:34 57.35 52.72 84.5
02/20/05 11:04 58.04 51.58 79
02/20/05 11:34 58.04 49.66 73.6
02/20/05 12:04 59.42 46.62 62.5
02/20/05 12:34 60.8 45.4 56.8
02/20/05 13:04 62.17 42.8 49
02/20/05 13:34 62.85 43.7 49.5
02/20/05 14:04 63.54 42.64 46.4
02/20/05 14:34 64.22 42.7 45.4
02/20/05 15:04 64.91 44.22 47
02/20/05 15:34 62.85 47.32 56.8
02/20/05 16:04 64.22 47.1 53.7
02/20/05 16:34 64.91 46.42 51.1
02/20/05 17:04 63.54 47.24 55.3
02/20/05 17:34 64.91 44.22 47
02/20/05 18:04 63.54 44.06 49
02/20/05 18:34 61.48 44.8 54.2
02/20/05 19:04 59.42 46.62 62.5
02/20/05 19:34 55.97 49.04 77.5
02/20/05 20:04 53.89 49.48 85
02/20/05 20:34 53.19 50.4 90.2
02/20/05 21:04 51.79 50.06 93.8
02/20/05 21:34 51.08 50.2 96.8
02/20/05 22:04 50.38 49.72 97.6
02/20/05 22:34 48.96 48.78 99.3
02/20/05 23:04 48.96 48.96 101.6
02/20/05 23:34 48.25 48.24 102.2
02/21/05 00:04 48.25 48.24 102.2
02/21/05 00:34 49.67 49.68 102.5
02/21/05 01:04 50.38 50.38 102.2
02/21/05 01:34 51.08 51.08 102.5
02/21/05 02:04 50.38 50.38 102.8
02/21/05 02:34 49.67 49.68 102.5
02/21/05 03:04 49.67 49.68 102.5
02/21/05 03:34 50.38 50.38 102.8
02/21/05 04:04 50.38 50.38 102.8
02/21/05 04:34 50.38 50.38 102.8
02/21/05 05:04 50.38 50.38 102.8
02/21/05 05:34 50.38 50.38 102.8
02/21/05 06:04 50.38 50.38 102.8
02/21/05 06:34 50.38 50.38 102.5
02/21/05 07:04 50.38 50.38 102.5
02/21/05 07:34 50.38 50.38 102.8
02/21/05 08:04 50.38 50.38 102.8
02/21/05 08:34 51.08 51.08 102.2
02/21/05 09:04 51.79 51.78 101.6
02/21/05 09:34 52.49 52.1 98.6
02/21/05 10:04 54.58 53.06 94.6
02/21/05 10:34 55.28 53.52 93.8
02/21/05 11:04 56.66 53.44 88.9
02/21/05 11:34 58.73 53.94 84.1
02/21/05 12:04 60.11 53.72 79.4
02/21/05 12:34 60.11 53.9 79.9
02/21/05 13:04 60.8 52.32 73.6
02/21/05 13:34 62.85 52.38 68.6
02/21/05 14:04 64.91 48.76 55.8
02/21/05 14:34 63.54 50.74 63
02/21/05 15:04 62.17 51.92 69.1
02/21/05 15:34 62.85 52.98 70.1
02/21/05 16:04 64.91 50.66 59.9
02/21/05 16:34 64.22 50.72 61.5
02/21/05 17:04 61.48 53.54 75.1
02/21/05 17:34 58.04 54.66 88.5
02/21/05 18:04 58.04 53.28 84.1
02/21/05 18:34 57.35 53.7 87.6
02/21/05 19:04 55.97 53.5 91.4
02/21/05 19:34 55.97 53.74 92.2
02/21/05 20:04 55.28 53.28 93
02/21/05 20:34 55.97 53.74 92.2
02/21/05 21:04 55.28 54.3 96.5
02/21/05 21:34 55.28 54.08 95.7
02/21/05 22:04 55.28 54.3 96.5
02/21/05 22:34 54.58 54 97.9
02/21/05 23:04 54.58 54.2 98.6
02/21/05 23:34 53.89 53.88 100.3
02/22/05 00:04 53.89 53.88 101.9
02/22/05 00:34 54.58 54.58 102.2
02/22/05 01:04 53.89 53.88 102.2
02/22/05 01:34 53.89 53.88 102.2
02/22/05 02:04 53.89 53.88 102.2
02/22/05 02:34 53.19 53.18 102.2
02/22/05 03:04 53.19 53.18 101.6
02/22/05 03:34 52.49 52.48 102.2
02/22/05 04:04 52.49 52.48 102.2
02/22/05 04:34 51.79 51.78 101.9
02/22/05 05:04 51.08 51.08 101.6
02/22/05 05:34 50.38 50.38 101.3
02/22/05 06:04 49.67 49.68 101.6
02/22/05 06:34 49.67 49.68 101.9
02/22/05 07:04 48.96 48.96 102.2
02/22/05 07:34 48.96 48.96 102.2
02/22/05 08:04 48.96 48.96 102.5
02/22/05 08:34 48.96 48.96 102.8
02/22/05 09:04 48.96 48.96 102.2
02/22/05 09:34 50.38 50.38 101.6
02/22/05 10:04 53.89 50.94 89.7
02/22/05 10:34 53.19 49.6 87.6
02/22/05 11:04 53.89 49.9 86.3
02/22/05 11:34 54.58 48.82 80.8
02/22/05 12:04 57.35 46.54 67.1
02/22/05 12:34 60.8 47.28 61
02/22/05 13:04 58.04 46.4 65.1
02/22/05 13:34 58.04 47.78 68.6
02/22/05 14:04 58.04 49.66 73.6
02/22/05 14:34 57.35 49.18 74.1
02/22/05 15:04 58.73 45.34 61
02/22/05 15:34 58.73 45.08 60.4
02/22/05 16:04 59.42 45.5 59.9
02/22/05 16:34 61.48 43.52 51.6
02/22/05 17:04 60.11 44.98 57.3
02/22/05 17:34 60.8 46.58 59.4
02/22/05 18:04 57.35 44.68 62.5
02/22/05 18:34 55.97 46 69.1
02/22/05 19:04 53.89 45.3 72.6
02/22/05 19:34 52.49 48.4 85.9
02/22/05 20:04 50.38 47.98 91.4
02/22/05 20:34 50.38 48.66 93.8
02/22/05 21:04 49.67 48.6 96.1
02/22/05 21:34 49.67 48.92 97.2
02/22/05 22:04 49.67 49.02 97.6
02/22/05 22:34 49.67 49.1 97.9
02/22/05 23:04 49.67 49.02 97.6
02/22/05 23:34 50.38 49.62 97.2
02/23/05 00:04 49.67 49.22 98.3
02/23/05 00:34 48.25 48.24 101
02/23/05 01:04 48.25 48.24 101.9
02/23/05 01:34 48.25 48.24 101.9
02/23/05 02:04 48.96 48.96 101.9
02/23/05 02:34 48.96 48.96 101.6
02/23/05 03:04 49.67 49.68 101.6
02/23/05 03:34 49.67 49.68 101.6
02/23/05 04:04 49.67 49.68 101.6
02/23/05 04:34 49.67 49.68 102.2
02/23/05 05:04 48.96 48.96 102.2
02/23/05 05:34 48.96 48.96 102.2
02/23/05 06:04 47.53 47.54 102.5
02/23/05 06:34 47.53 47.54 102.2
02/23/05 07:04 48.25 48.24 102.5
02/23/05 07:34 48.96 48.96 102.5
02/23/05 08:04 48.96 48.96 102.5
02/23/05 08:34 49.67 49.68 102.8
02/23/05 09:04 50.38 50.38 102.5
02/23/05 09:34 50.38 50.38 102.5
02/23/05 10:04 51.79 51.78 100.6
02/23/05 10:34 53.89 51.92 93
02/23/05 11:04 55.28 51.38 86.7
02/23/05 11:34 55.28 50.86 85
02/23/05 12:04 58.04 48.6 70.7
02/23/05 12:34 59.42 47.5 64.6
02/23/05 13:04 61.48 47.44 59.9
02/23/05 13:34 60.11 45.26 57.9
02/23/05 14:04 55.28 49.18 79.9
02/23/05 14:34 58.73 47.66 66.6
02/23/05 15:04 57.35 50.56 78
02/23/05 15:34 59.42 47.7 65.1
02/23/05 16:04 59.42 47.5 64.6
02/23/05 16:34 58.73 45.56 61.5
02/23/05 17:04 58.04 45.74 63.5
02/23/05 17:34 58.73 40.98 51.6
02/23/05 18:04 58.73 41.76 53.2
02/23/05 18:34 56.66 42.92 59.9
02/23/05 19:04 54.58 45.04 70.1
02/23/05 19:34 53.19 44.62 72.6
02/23/05 20:04 53.19 45.52 75.1
02/23/05 20:34 52.49 45.36 76.6
02/23/05 21:04 51.08 46.02 82.7
02/23/05 21:34 49.67 45.88 86.7
02/23/05 22:04 48.96 46.34 90.6
02/23/05 22:34 47.53 45.5 92.6
02/23/05 23:04 46.1 44.94 95.7
02/23/05 23:34 45.38 44.92 98.3
02/24/05 00:04 44.65 44.38 99
02/24/05 00:34 44.65 44.46 99.3
02/24/05 01:04 43.92 43.82 99.6
02/24/05 01:34 43.92 43.92 101.6
02/24/05 02:04 43.19 43.2 101.9
02/24/05 02:34 43.92 43.92 101.9
02/24/05 03:04 44.65 44.66 101.9
02/24/05 03:34 43.19 43.2 101.9
02/24/05 04:04 42.46 42.46 102.5
02/24/05 04:34 41.72 41.72 102.2
02/24/05 05:04 41.72 41.72 102.5
02/24/05 05:34 41.72 41.72 102.5
02/24/05 06:04 41.72 41.72 102.8
02/24/05 06:34 41.72 41.72 102.8
02/24/05 07:04 40.97 40.98 102.8
02/24/05 07:34 41.72 41.72 102.8
02/24/05 08:04 41.72 41.72 102.8
02/24/05 08:34 42.46 42.46 102.8
02/24/05 09:04 43.92 43.92 102.5
02/24/05 09:34 45.38 45.38 102.8
02/24/05 10:04 53.19 53.18 101.6
02/24/05 10:34 55.97 47.12 72.1
02/24/05 11:04 56.66 43.82 62
02/24/05 11:34 59.42 42.88 54.2
02/24/05 12:04 56.66 43.38 61
02/24/05 12:34 60.11 40.38 48
02/24/05 13:04 62.17 40.82 45.4
02/24/05 13:34 59.42 39.76 48
02/24/05 14:04 66.28 38.42 35.8
02/24/05 14:34 60.8 40.74 47.5
02/24/05 15:04 61.48 40.76 46.4
02/24/05 15:34 62.17 44.4 52.1
02/24/05 16:04 64.22 40.86 42.3
02/24/05 16:34 68.33 37.68 32.4
02/24/05 17:04 66.28 40.48 38.8
02/24/05 17:34 61.48 42.44 49.5
02/24/05 18:04 58.73 43 55.8
02/24/05 18:34 61.48 38.4 42.3
02/24/05 19:04 56.66 43.82 62
02/24/05 19:34 54.58 44.86 69.6
02/24/05 20:04 53.19 45.52 75.1
02/24/05 20:34 52.49 45.66 77.5
02/24/05 21:04 50.38 45.76 84.1
02/24/05 21:34 48.96 45.96 89.3
02/24/05 22:04 47.53 45.72 93.4
02/24/05 22:34 46.82 45.76 96.1
02/24/05 23:04 46.1 45.64 98.3
02/24/05 23:34 46.1 45.84 99
02/25/05 00:04 46.1 45.46 97.6
02/25/05 00:34 45.38 44.74 97.6
02/25/05 01:04 45.38 44.82 97.9
02/25/05 01:34 43.92 43.56 98.6
02/25/05 02:04 43.19 43.2 100
02/25/05 02:34 43.92 43.92 101.3
02/25/05 03:04 43.92 43.92 101.6
02/25/05 03:34 43.92 43.92 101.3
02/25/05 04:04 43.92 43.92 100.6
02/25/05 04:34 43.19 43.2 100.6
02/25/05 05:04 41.72 41.72 101
02/25/05 05:34 42.46 42.46 101.9
02/25/05 06:04 41.72 41.72 101.9
02/25/05 06:34 42.46 42.46 102.2
02/25/05 07:04 40.97 40.98 102.2
02/25/05 07:34 40.23 40.22 102.2
02/25/05 08:04 41.72 41.72 102.2
02/25/05 08:34 40.97 40.98 102.2
02/25/05 09:04 43.19 43.2 102.2
02/25/05 09:34 46.1 46.1 100.6
02/25/05 10:04 54.58 46.34 73.6
02/25/05 10:34 57.35 44.46 62
02/25/05 11:04 59.42 42.88 54.2
02/25/05 11:34 60.8 41.02 48
02/25/05 12:04 62.17 39.38 42.9
02/25/05 12:34 62.85 38.08 39.8
02/25/05 13:04 62.85 37.1 38.3
02/25/05 13:34 64.91 36.86 35.3
02/25/05 14:04 65.59 36.36 33.8
02/25/05 14:34 67.65 35.9 30.9
02/25/05 15:04 66.96 34.14 29.5
02/25/05 15:34 64.22 31.34 29
02/25/05 16:04 66.28 30.6 26.2
02/25/05 16:34 66.96 28.94 23.9
02/25/05 17:04 65.59 33.7 30.4
02/25/05 17:34 64.91 37.22 35.8
02/25/05 18:04 62.85 38.4 40.3
02/25/05 18:34 62.17 36.48 38.3
02/25/05 19:04 59.42 39.76 48
02/25/05 19:34 57.35 41.72 55.8
02/25/05 20:04 55.28 40.24 56.8
02/25/05 20:34 54.58 41.42 61
02/25/05 21:04 54.58 46.52 74.1
02/25/05 21:34 53.89 47.84 79.9
02/25/05 22:04 53.89 47.66 79.4
02/25/05 22:34 52.49 49.04 88
02/25/05 23:04 51.79 49.24 91
02/25/05 23:34 51.08 49.36 93.8
02/26/05 00:04 50.38 48.66 93.8
02/26/05 00:34 49.67 48.6 96.1
02/26/05 01:04 48.25 47.5 97.2
02/26/05 01:34 47.53 46.98 97.9
02/26/05 02:04 46.1 45.84 99
02/26/05 02:34 45.38 45.38 101
02/26/05 03:04 45.38 45.38 101.9
02/26/05 03:34 44.65 44.66 101.9
02/26/05 04:04 44.65 44.66 102.2
02/26/05 04:34 44.65 44.66 102.2
02/26/05 05:04 43.92 43.92 102.2
02/26/05 05:34 43.19 43.2 101.9
02/26/05 06:04 42.46 42.46 102.2
02/26/05 06:34 42.46 42.46 102.2
02/26/05 07:04 42.46 42.46 102.2
02/26/05 07:34 41.72 41.72 102.2
02/26/05 08:04 40.97 40.98 102.5
02/26/05 08:34 41.72 41.72 102.5
02/26/05 09:04 42.46 42.46 102.5
02/26/05 09:34 45.38 45.38 102.2
02/26/05 10:04 54.58 53.18 95
02/26/05 10:34 58.04 47.78 68.6
02/26/05 11:04 59.42 46.84 63
02/26/05 11:34 60.11 42.5 52.1
02/26/05 12:04 61.48 42.44 49.5
02/26/05 12:34 62.85 42.62 47.5
02/26/05 13:04 63.54 43.52 48
02/26/05 13:34 64.22 43.88 47.5
02/26/05 14:04 65.59 42.1 42.3
02/26/05 14:34 64.22 42.7 45.4
02/26/05 15:04 65.59 39.88 38.8
02/26/05 15:34 67.65 35.48 30.4
02/26/05 16:04 69.02 35.04 28.5
02/26/05 16:34 68.33 34.46 28.5
02/26/05 17:04 69.02 35.04 28.5
02/26/05 17:34 63.54 40.6 42.9
02/26/05 18:04 65.59 36.74 34.3
02/26/05 18:34 64.91 39.58 39.3
02/26/05 19:04 62.17 41.72 47
02/26/05 19:34 58.73 46.64 64.1
02/26/05 20:04 56.66 47.98 72.6
02/26/05 20:34 55.28 48.88 79
02/26/05 21:04 53.89 49.48 85
02/26/05 21:34 52.49 49.56 89.7
02/26/05 22:04 51.08 49.24 93.4
02/26/05 22:34 50.38 49 95
02/26/05 23:04 49.67 48.5 95.7
02/26/05 23:34 48.25 47.6 97.6
02/27/05 00:04 47.53 47.16 98.6
02/27/05 00:34 46.82 46.72 99.6
02/27/05 01:04 46.1 46.1 101.3
02/27/05 01:34 46.1 46.1 101.6
02/27/05 02:04 46.82 46.82 101.3
02/27/05 02:34 45.38 45.38 101.3
02/27/05 03:04 45.38 45.38 101.9
02/27/05 03:34 44.65 44.66 101.9
02/27/05 04:04 43.92 43.92 102.2
02/27/05 04:34 43.19 43.2 102.2
02/27/05 05:04 43.92 43.92 102.2
02/27/05 05:34 43.19 43.2 102.2
02/27/05 06:04 42.46 42.46 102.5
02/27/05 06:34 40.97 40.98 102.5
02/27/05 07:04 41.72 41.72 102.5
02/27/05 07:34 40.97 40.98 102.8
02/27/05 08:04 40.23 40.22 102.5
02/27/05 08:34 40.97 40.98 102.5
02/27/05 09:04 42.46 42.46 102.8
02/27/05 09:34 46.1 46.1 102.5
02/27/05 10:04 54.58 54.58 101.9
02/27/05 10:34 58.04 52.52 81.8
02/27/05 11:04 60.11 47.7 63.5
02/27/05 11:34 61.48 46.78 58.4
02/27/05 12:04 61.48 42.44 49.5
02/27/05 12:34 63.54 44.06 49
02/27/05 13:04 64.91 36.14 34.3
02/27/05 13:34 66.28 31.9 27.6
02/27/05 14:04 66.28 28.86 24.4
02/27/05 14:34 69.02 31.18 24.4
02/27/05 15:04 70.39 30.88 23
02/27/05 15:34 72.46 31.62 22.1
02/27/05 16:04 71.08 35.16 26.7
02/27/05 16:34 72.46 35.38 25.7
02/27/05 17:04 69.71 37.26 30.4
02/27/05 17:34 69.71 38.88 32.4
02/27/05 18:04 68.33 41.64 37.8
02/27/05 18:34 66.28 44.28 44.9
02/27/05 19:04 63.54 46.72 54.2
02/27/05 19:34 59.42 49.1 68.6
02/27/05 20:04 57.35 49 73.6
02/27/05 20:34 56.66 49.72 77.5
02/27/05 21:04 55.97 49.7 79.4
02/27/05 21:34 54.58 49.88 84.1
02/27/05 22:04 53.19 49.34 86.7
02/27/05 22:34 51.79 49.72 92.6
02/27/05 23:04 51.79 50.72 96.1
02/27/05 23:34 52.49 51.42 96.1
02/28/05 00:04 50.38 49.62 97.2
02/28/05 00:34 48.96 48.58 98.6
02/28/05 01:04 48.25 48.06 99.3
02/28/05 01:34 48.25 48.24 101.3
02/28/05 02:04 47.53 47.54 101.6
02/28/05 02:34 47.53 47.54 101.6
02/28/05 03:04 46.82 46.82 101.6
02/28/05 03:34 45.38 45.38 101.9
02/28/05 04:04 46.1 46.1 101.9
02/28/05 04:34 45.38 45.38 102.2
02/28/05 05:04 45.38 45.38 102.5
02/28/05 05:34 45.38 45.38 102.5
02/28/05 06:04 44.65 44.66 102.5
02/28/05 06:34 43.92 43.92 102.8
02/28/05 07:04 43.19 43.2 102.5
02/28/05 07:34 43.92 43.92 102.8
02/28/05 08:04 43.19 43.2 102.8
02/28/05 08:34 43.92 43.92 102.5
02/28/05 09:04 46.1 46.1 102.8
02/28/05 09:34 48.96 48.96 102.5
02/28/05 10:04 59.42 57.64 93.8
02/28/05 10:34 63.54 51.4 64.6
02/28/05 11:04 64.91 48.22 54.7
02/28/05 11:34 66.28 43.38 43.4
02/28/05 12:04 67.65 35.9 30.9
02/28/05 12:34 69.02 36.34 30
02/28/05 13:04 70.39 36.66 29
02/28/05 13:34 71.08 34.7 26.2
02/28/05 14:04 72.46 35.86 26.2
02/28/05 14:34 72.46 34.48 24.8
02/28/05 15:04 75.22 34.48 22.6
02/28/05 15:34 77.31 33.66 20.4
02/28/05 16:04 77.31 32.54 19.5
02/28/05 16:34 75.22 34.48 22.6
02/28/05 17:04 71.77 43.62 36.3
02/28/05 17:34 70.39 42.76 36.8
02/28/05 18:04 69.71 42.86 37.8
02/28/05 18:34 69.02 41.56 36.8
02/28/05 19:04 65.59 42.46 42.9
02/28/05 19:34 62.17 44.96 53.2
02/28/05 20:04 60.11 45.7 58.9
02/28/05 20:34 58.73 46.18 63
02/28/05 21:04 57.35 45.74 65.1
02/28/05 21:34 55.97 47.86 74.1
02/28/05 22:04 55.28 49.18 79.9
02/28/05 22:34 53.19 48.24 83.2
02/28/05 23:04 52.49 48.8 87.2
02/28/05 23:34 50.38 47.62 90.2